Flight Track Log - Related Links

Times and Time Zones

All times are in EDT time to prevent confusion due to time zone crossing. See the ASQ6041 flight status page for this flight to view local times or setup timezone preferences in your user account.

Time Position Orientation Groundspeed Altitude Reporting Facility
EDT Latitude Longitude Course Direction KTS MPH feet Rate Location/Type
Sun 12:36:36 PM 39.8564 -104.7425 31° Northeast 179 206 6,900  Level Denver Center
Sun 12:37:37 PM 39.9206 -104.6917 31° Northeast 278 320 9,400 2,146 Climbing Denver Center
Sun 12:38:39 PM 39.9939 -104.6025 43° Northeast 338 389 11,300 1,979 Climbing Denver Center
Sun 12:39:11 PM 40.0333 -104.5500 46° Northeast 372 428 12,500 2,152 Climbing Denver TRACON
Sun 12:40:11 PM 40.0167 -104.4167 99° East 402 463 14,600 2,022 Climbing Denver TRACON
Sun 12:40:43 PM 40.0036 -104.3358 102° East 404 465 15,600 1,979 Climbing Denver Center
Sun 12:41:45 PM 39.9769 -104.1733 102° East 427 491 17,700 2,032 Climbing Denver Center
Sun 12:42:47 PM 39.9972 -104.0169 80° East 443 510 19,800 1,887 Climbing Denver Center
Sun 12:43:49 PM 40.0203 -103.8556 79° East 452 520 21,600 1,597 Climbing Denver Center
Sun 12:44:51 PM 40.0456 -103.6892 79° East 442 509 23,100 1,452 Climbing Denver Center
Sun 12:45:53 PM 40.0706 -103.5181 79° East 472 543 24,600 1,452 Climbing Denver Center
Sun 12:46:55 PM 40.0964 -103.3431 79° East 485 558 26,100 1,452 Climbing Denver Center
Sun 12:47:57 PM 40.1206 -103.1678 80° East 486 559 27,600 1,403 Climbing Denver Center
Sun 12:48:59 PM 40.1461 -102.9931 79° East 486 559 29,000 677 Climbing Denver Center
Sun 12:50:01 PM 40.1767 -102.7764 79° East 511 588 29,000  Level Denver Center
Sun 12:51:03 PM 40.2028 -102.5903 80° East 533 613 29,000  Level Denver Center
Sun 12:52:05 PM 40.2303 -102.4000 79° East 551 634 29,000  Level Denver Center
Sun 12:53:06 PM 40.2594 -102.1792 80° East 553 636 29,000  Level Denver Center
Sun 12:54:08 PM 40.2839 -101.9911 80° East 550 633 29,000  Level Denver Center
Sun 12:55:10 PM 40.3111 -101.7719 81° East 547 629 29,000  Level Denver Center
Sun 12:56:12 PM 40.3356 -101.5850 80° East 545 627 29,000  Level Denver Center
Sun 12:57:14 PM 40.3642 -101.3686 80° East 542 624 29,000  Level Denver Center
Sun 12:58:16 PM 40.3869 -101.1828 81° East 541 623 29,000  Level Denver Center
Sun 12:59:18 PM 40.4139 -100.9683 81° East 537 618 29,000  Level Denver Center
Sun 01:00:20 PM 40.4356 -100.7867 81° East 532 612 29,000  Level Denver Center
Sun 01:01:22 PM 40.4606 -100.5775 81° East 526 605 29,000  Level Denver Center
Sun 01:02:24 PM 40.4817 -100.3989 81° East 523 602 29,000  Level Denver Center
Sun 01:03:26 PM 40.5058 -100.1917 81° East 519 597 29,000  Level Denver Center
Sun 01:04:28 PM 40.5261 -100.0144 81° East 515 593 29,000  Level Denver Center
Sun 01:05:29 PM 40.5497 -99.8114 81° East 510 587 29,000  Level Denver Center
Sun 01:06:32 PM 40.5700 -99.6272 82° East 510 587 29,000 -192 Level Denver Center
Sun 01:07:34 PM 40.5900 -99.4439 82° East 508 585 28,600 -927 Descending Denver Center
Sun 01:08:35 PM 40.6097 -99.2600 82° East 509 586 27,100 -1,463 Descending Denver Center
Sun 01:09:37 PM 40.6303 -99.0761 82° East 510 587 25,600 -1,489 Descending Denver Center
Sun 01:10:48 PM 40.6522 -98.8625 82° East 502 578 23,800 -1,489 Descending Minneapolis Center
Sun 01:11:50 PM 40.6703 -98.6911 82° East 485 558 22,300 -1,707 Descending Minneapolis Center
Sun 01:12:51 PM 40.6894 -98.4911 83° East 467 537 20,300 -2,049 Descending Minneapolis Center
Sun 01:13:53 PM 40.7056 -98.3297 82° East 453 521 18,100 -1,951 Descending Minneapolis Center
Sun 01:14:54 PM 40.7203 -98.1781 83° East 429 494 16,300 -1,707 Descending Minneapolis Center
Sun 01:15:56 PM 40.7350 -98.0325 82° East 411 473 14,600 -1,659 Descending Minneapolis Center
Sun 01:16:57 PM 40.7489 -97.8894 83° East 398 458 12,900 -1,610 Descending Minneapolis Center
Sun 01:17:59 PM 40.7614 -97.7500 83° East 388 447 11,300 -1,267 Descending Minneapolis Center
Sun 01:18:27 PM 40.7464 -97.6594 102° East 382 440 11,000 -295 Descending Minneapolis Center
Sun 01:19:00 PM 40.7747 -97.6117 52° Northeast 383 441 11,000 -63 Level Minneapolis Center
Sun 01:20:02 PM 40.7911 -97.4822 80° East 365 420 10,900 -683 Descending Minneapolis Center
Sun 01:21:03 PM 40.8186 -97.3553 74° East 327 376 9,600 -1,220 Descending Minneapolis Center
Sun 01:22:05 PM 40.8433 -97.2461 73° East 314 361 8,400 -1,448 Descending Minneapolis Center
Sun 01:22:59 PM 40.8481 -97.1358 87° East 299 344 6,800 -1,596 Descending Minneapolis Center
Sun 01:23:54 PM 40.8658 -97.0461 75° East 272 313 5,500 -1,397 Descending Minneapolis Center
Sun 01:24:55 PM 40.8861 -96.9586 73° East 244 281 4,100 -1,105 Descending Minneapolis Center
Sun 01:25:10 PM 40.9008 -96.9533 15° North 261 300 4,100 -400 Level Minneapolis Center
Sun 01:25:55 PM 40.9042 -96.8742 87° East 242 278 3,700 -393 Descending Minneapolis Center
Sun 01:26:11 PM 40.9206 -96.8711 North 247 284 3,700 -1,082 Level Minneapolis Center
Sun 01:26:56 PM 40.9097 -96.7911 100° East 226 260 2,600 -1,161 Descending Minneapolis Center
Sun 01:27:13 PM 40.9161 -96.7719 66° East 231 266 2,500 -1,000 Descending Minneapolis Center
Sun 01:28:02 PM 40.8658 -96.7569 167° South 145 167 1,500 -1,224 Descending Minneapolis Center
Sun 01:30:00 PM 40.8500 -96.7500 66° East  Level FlightAware Approximate

Login

Don't have an account? Register now (free) for customized features, flight alerts, and more!